Time;durP1;ratioP1;P1;durP2;ratioP2;P2;SDS_P1;SDS_P2;PMS_P1;PMS_P2;Temp;Humidity;BMP_temperature;BMP_pressure;BME280_temperature;BME280_humidity;BME280_pressure;Samples;Min_cycle;Max_cycle;Signal;HPM_P1;HPM_P2
2022/05/27 00:00:44;;;;;;;13.10;7.32;;;;;;;;;;4450212;32;20228;-55
2022/05/27 00:03:11;;;;;;;22.77;7.53;;;;;;;;;;4451892;32;20729;-56
2022/05/27 00:05:37;;;;;;;13.57;7.70;;;;;;;;;;4451408;32;20252;-56
2022/05/27 00:08:03;;;;;;;17.33;8.50;;;;;;;;;;4451852;32;20547;-55
2022/05/27 00:10:28;;;;;;;9.27;7.12;;;;;;;;;;4451954;32;20354;-55
2022/05/27 00:12:54;;;;;;;19.08;6.93;;;;;;;;;;4451606;32;20245;-55
2022/05/27 00:15:20;;;;;;;10.68;7.45;;;;;;;;;;4451846;32;20237;-55
2022/05/27 00:17:46;;;;;;;12.95;6.87;;;;;;;;;;4450422;32;20256;-56
2022/05/27 00:20:12;;;;;;;13.13;7.28;;;;;;;;;;4451256;32;20352;-55
2022/05/27 00:22:38;;;;;;;8.27;5.95;;;;;;;;;;4451573;32;20296;-54
2022/05/27 00:25:04;;;;;;;9.85;7.30;;;;;;;;;;4451639;32;20374;-54
2022/05/27 00:27:29;;;;;;;13.43;7.82;;;;;;;;;;4450534;32;20280;-55
2022/05/27 00:29:55;;;;;;;15.57;9.05;;;;;;;;;;4451549;32;20612;-55
2022/05/27 00:32:21;;;;;;;10.85;7.95;;;;;;;;;;4451689;32;20363;-55
2022/05/27 00:34:46;;;;;;;12.43;8.00;;;;;;;;;;4451440;32;20776;-55
2022/05/27 00:37:12;;;;;;;9.10;5.90;;;;;;;;;;4451469;32;20220;-56
2022/05/27 00:39:38;;;;;;;15.40;7.68;;;;;;;;;;4451719;32;20298;-55
2022/05/27 00:42:04;;;;;;;15.38;7.12;;;;;;;;;;4450938;32;20644;-55
2022/05/27 00:44:30;;;;;;;10.90;7.75;;;;;;;;;;4451730;32;20263;-56
2022/05/27 00:47:06;;;;;;;15.48;8.52;;;;;;;;;;4451233;32;20224;-55
2022/05/27 00:49:32;;;;;;;17.92;8.23;;;;;;;;;;4451184;32;20204;-55
2022/05/27 00:52:04;;;;;;;11.77;7.57;;;;;;;;;;4453614;32;20532;-55
2022/05/27 00:54:31;;;;;;;12.73;7.53;;;;;;;;;;4466407;32;20264;-56
2022/05/27 00:57:00;;;;;;;8.45;6.25;;;;;;;;;;4465901;32;20253;-55
2022/05/27 00:59:30;;;;;;;15.20;7.22;;;;;;;;;;4466448;32;20248;-56
2022/05/27 01:01:56;;;;;;;14.07;7.22;;;;;;;;;;4466042;32;20216;-56
2022/05/27 01:04:23;;;;;;;15.30;7.50;;;;;;;;;;4466172;32;20301;-56
2022/05/27 01:06:49;;;;;;;15.57;10.07;;;;;;;;;;4466400;32;20592;-55
2022/05/27 01:09:14;;;;;;;11.75;7.65;;;;;;;;;;4451898;32;20330;-55
2022/05/27 01:11:51;;;;;;;18.10;8.00;;;;;;;;;;4450281;32;20607;-56
2022/05/27 01:14:21;;;;;;;12.73;8.32;;;;;;;;;;4451151;32;20524;-55
2022/05/27 01:16:49;;;;;;;11.93;7.70;;;;;;;;;;4450427;32;20698;-56
2022/05/27 01:22:51;;;;;;;9.27;7.03;;;;;;;;;;4450569;32;20681;-57
2022/05/27 01:25:38;;;;;;;10.63;8.50;;;;;;;;;;4450599;32;20189;-55
2022/05/27 01:28:13;;;;;;;14.07;11.55;;;;;;;;;;4461441;32;20224;-55
2022/05/27 01:30:53;;;;;;;19.48;12.27;;;;;;;;;;4466096;32;20287;-55
2022/05/27 01:33:27;;;;;;;15.63;13.50;;;;;;;;;;4466706;32;20282;-55
2022/05/27 01:36:05;;;;;;;22.27;11.90;;;;;;;;;;4466128;32;20255;-56
2022/05/27 01:38:45;;;;;;;17.30;10.05;;;;;;;;;;4466273;32;20203;-56
2022/05/27 01:41:14;;;;;;;16.83;10.02;;;;;;;;;;4464417;32;20505;-56
2022/05/27 01:44:15;;;;;;;11.57;8.55;;;;;;;;;;4465693;32;20276;-56
2022/05/27 01:46:45;;;;;;;16.65;7.43;;;;;;;;;;4447040;32;20215;-55
2022/05/27 01:49:37;;;;;;;14.27;7.40;;;;;;;;;;4465694;32;20219;-55
2022/05/27 01:52:17;;;;;;;8.45;6.90;;;;;;;;;;4462005;32;20277;-56
2022/05/27 01:55:16;;;;;;;9.80;6.85;;;;;;;;;;4450260;32;20192;-54
2022/05/27 01:57:58;;;;;;;10.95;7.10;;;;;;;;;;4449757;32;20273;-55
2022/05/27 02:00:26;;;;;;;16.30;7.05;;;;;;;;;;4449634;32;20229;-55
2022/05/27 02:03:18;;;;;;;10.75;6.43;;;;;;;;;;4450019;32;20314;-56
2022/05/27 02:05:56;;;;;;;9.25;6.00;;;;;;;;;;4430645;32;20304;-55
2022/05/27 02:08:25;;;;;;;12.90;6.72;;;;;;;;;;4457366;32;20215;-55
2022/05/27 02:11:00;;;;;;;10.82;7.53;;;;;;;;;;4464931;32;20208;-55
2022/05/27 02:13:41;;;;;;;11.95;6.97;;;;;;;;;;4465614;32;20624;-57
2022/05/27 02:16:12;;;;;;;11.27;7.05;;;;;;;;;;4463897;32;20875;-55
2022/05/27 02:18:52;;;;;;;15.98;8.05;;;;;;;;;;4465473;32;20216;-55
2022/05/27 02:21:26;;;;;;;18.42;7.43;;;;;;;;;;4449688;32;20215;-55
2022/05/27 02:23:56;;;;;;;8.80;6.72;;;;;;;;;;4450124;32;20613;-55
2022/05/27 02:26:27;;;;;;;10.10;6.22;;;;;;;;;;4449369;32;20323;-56
2022/05/27 02:29:07;;;;;;;8.45;6.68;;;;;;;;;;4464903;32;20216;-55
2022/05/27 02:31:37;;;;;;;16.00;9.23;;;;;;;;;;4465078;32;20690;-55
2022/05/27 02:37:15;;;;;;;12.07;7.80;;;;;;;;;;4465145;32;20781;-55
2022/05/27 02:39:40;;;;;;;11.98;7.72;;;;;;;;;;4464954;32;20203;-55
2022/05/27 02:42:26;;;;;;;12.35;6.93;;;;;;;;;;4464479;32;20243;-55
2022/05/27 02:45:17;;;;;;;13.20;6.85;;;;;;;;;;4465326;32;20271;-55
2022/05/27 02:48:09;;;;;;;13.15;7.65;;;;;;;;;;4465157;32;20257;-55
2022/05/27 02:50:37;;;;;;;13.38;7.55;;;;;;;;;;4463866;32;20222;-56
2022/05/27 02:53:26;;;;;;;14.13;7.93;;;;;;;;;;4464897;32;20228;-55
2022/05/27 02:56:09;;;;;;;22.62;10.82;;;;;;;;;;4464581;32;20201;-56
2022/05/27 02:58:35;;;;;;;17.48;10.27;;;;;;;;;;4463612;32;20224;-55
2022/05/27 03:01:01;;;;;;;16.40;8.43;;;;;;;;;;4464986;32;20530;-55
2022/05/27 03:03:27;;;;;;;15.40;8.15;;;;;;;;;;4464941;32;20299;-55
2022/05/27 03:06:21;;;;;;;31.33;8.35;;;;;;;;;;4464596;32;20525;-56
2022/05/27 03:09:08;;;;;;;19.05;7.68;;;;;;;;;;4425416;32;20298;-56
2022/05/27 03:11:52;;;;;;;24.85;7.87;;;;;;;;;;4448951;32;20236;-55
2022/05/27 03:14:23;;;;;;;10.98;8.13;;;;;;;;;;4449061;32;20188;-55
2022/05/27 03:17:36;;;;;;;25.23;8.10;;;;;;;;;;4448989;32;20284;-55
2022/05/27 03:20:04;;;;;;;20.45;8.27;;;;;;;;;;4389019;32;20209;-55
2022/05/27 03:22:51;;;;;;;19.60;8.65;;;;;;;;;;4389172;32;20395;-55
2022/05/27 03:25:16;;;;;;;18.92;8.25;;;;;;;;;;4431719;32;20287;-56
2022/05/27 03:28:34;;;;;;;8.80;6.72;;;;;;;;;;4460943;32;20373;-54
2022/05/27 03:31:17;;;;;;;15.10;6.05;;;;;;;;;;4441079;32;20309;-55
2022/05/27 03:34:04;;;;;;;11.88;7.05;;;;;;;;;;4467957;32;20192;-55
2022/05/27 03:36:34;;;;;;;18.85;8.00;;;;;;;;;;4467492;32;20220;-55
2022/05/27 03:39:16;;;;;;;10.52;6.45;;;;;;;;;;4467878;32;20244;-55
2022/05/27 03:41:47;;;;;;;12.32;7.40;;;;;;;;;;4467389;32;20220;-55
2022/05/27 03:44:15;;;;;;;15.10;8.45;;;;;;;;;;4468206;32;20204;-55
2022/05/27 03:46:41;;;;;;;19.92;8.25;;;;;;;;;;4466569;32;20722;-54
2022/05/27 03:49:07;;;;;;;14.40;8.00;;;;;;;;;;4467727;32;20274;-55
2022/05/27 03:51:38;;;;;;;19.85;9.32;;;;;;;;;;4467213;32;20628;-54
2022/05/27 03:54:10;;;;;;;10.63;8.65;;;;;;;;;;4468042;32;20554;-54
2022/05/27 03:56:39;;;;;;;22.52;9.30;;;;;;;;;;4467348;32;20224;-55
2022/05/27 03:59:07;;;;;;;11.32;8.68;;;;;;;;;;4467638;32;20283;-56
2022/05/27 04:01:34;;;;;;;23.00;9.93;;;;;;;;;;4467347;32;20236;-56
2022/05/27 04:04:02;;;;;;;21.83;9.50;;;;;;;;;;4467785;32;20215;-55
2022/05/27 04:06:28;;;;;;;15.45;9.27;;;;;;;;;;4467558;32;20247;-55
2022/05/27 04:08:54;;;;;;;17.10;8.70;;;;;;;;;;4456856;32;20306;-56
2022/05/27 04:11:20;;;;;;;20.15;10.40;;;;;;;;;;4451388;32;20220;-55
2022/05/27 04:13:46;;;;;;;20.83;10.55;;;;;;;;;;4466813;32;20764;-56
2022/05/27 04:16:12;;;;;;;18.80;10.55;;;;;;;;;;4467410;32;20279;-56
2022/05/27 04:18:38;;;;;;;16.67;10.32;;;;;;;;;;4467547;32;20267;-55
2022/05/27 04:21:03;;;;;;;24.58;10.85;;;;;;;;;;4467147;32;20664;-55
2022/05/27 04:23:29;;;;;;;24.55;12.32;;;;;;;;;;4466103;32;20618;-55
2022/05/27 04:25:55;;;;;;;27.23;14.15;;;;;;;;;;4465974;32;20204;-55
2022/05/27 04:28:20;;;;;;;20.60;13.85;;;;;;;;;;4466631;32;20291;-55
2022/05/27 04:30:46;;;;;;;20.83;10.93;;;;;;;;;;4466474;32;20231;-55
2022/05/27 04:33:12;;;;;;;25.48;9.68;;;;;;;;;;4467419;32;20337;-55
2022/05/27 04:35:38;;;;;;;19.27;11.82;;;;;;;;;;4467122;32;20564;-55
2022/05/27 04:38:04;;;;;;;22.30;10.98;;;;;;;;;;4467570;32;20298;-55
2022/05/27 04:40:30;;;;;;;20.70;10.25;;;;;;;;;;4466971;32;20239;-55
2022/05/27 04:42:56;;;;;;;17.35;9.48;;;;;;;;;;4467267;32;20648;-56
2022/05/27 04:45:21;;;;;;;24.48;10.68;;;;;;;;;;4467083;32;20223;-55
2022/05/27 04:47:47;;;;;;;13.43;9.65;;;;;;;;;;4467010;32;20307;-55
2022/05/27 04:50:13;;;;;;;18.77;9.70;;;;;;;;;;4466837;32;20319;-57
2022/05/27 04:52:40;;;;;;;22.90;10.95;;;;;;;;;;4459463;32;20353;-55
2022/05/27 04:55:08;;;;;;;29.65;11.43;;;;;;;;;;4450862;32;20220;-54
2022/05/27 04:57:38;;;;;;;29.77;10.00;;;;;;;;;;4450662;32;20638;-55
2022/05/27 05:00:10;;;;;;;19.70;10.05;;;;;;;;;;4451104;32;20315;-56
2022/05/27 05:02:36;;;;;;;20.08;12.00;;;;;;;;;;4450810;32;20281;-56
2022/05/27 05:05:02;;;;;;;19.15;11.68;;;;;;;;;;4451192;32;20283;-56
2022/05/27 05:07:28;;;;;;;18.42;11.07;;;;;;;;;;4452533;32;20240;-56
2022/05/27 05:09:53;;;;;;;18.73;10.18;;;;;;;;;;4450451;32;20347;-54
2022/05/27 05:12:22;;;;;;;24.08;10.85;;;;;;;;;;4450352;32;20726;-54
2022/05/27 05:14:51;;;;;;;35.05;11.48;;;;;;;;;;4450435;32;20627;-54
2022/05/27 05:17:17;;;;;;;14.65;9.68;;;;;;;;;;4450416;32;20259;-55
2022/05/27 05:19:43;;;;;;;20.98;8.73;;;;;;;;;;4450041;32;20263;-56
2022/05/27 05:22:08;;;;;;;19.60;10.73;;;;;;;;;;4449994;32;20370;-55
2022/05/27 05:24:34;;;;;;;18.33;8.93;;;;;;;;;;4449776;32;20323;-55
2022/05/27 05:27:00;;;;;;;13.68;8.23;;;;;;;;;;4454444;32;20659;-56
2022/05/27 05:29:25;;;;;;;13.65;8.32;;;;;;;;;;4465880;32;20612;-56
2022/05/27 05:31:51;;;;;;;13.00;8.45;;;;;;;;;;4465315;32;20317;-56
2022/05/27 05:34:16;;;;;;;14.95;8.82;;;;;;;;;;4465895;32;20566;-56
2022/05/27 05:36:42;;;;;;;12.50;8.60;;;;;;;;;;4465987;32;20292;-56
2022/05/27 05:39:07;;;;;;;20.37;9.75;;;;;;;;;;4465468;32;20256;-55
2022/05/27 05:41:36;;;;;;;15.90;9.10;;;;;;;;;;4465793;32;20246;-55
2022/05/27 05:44:03;;;;;;;11.60;8.77;;;;;;;;;;4465941;32;20592;-54
2022/05/27 05:46:31;;;;;;;21.62;9.48;;;;;;;;;;4465032;32;20319;-54
2022/05/27 05:48:57;;;;;;;12.32;8.55;;;;;;;;;;4465213;32;20291;-55
2022/05/27 05:51:22;;;;;;;15.20;8.70;;;;;;;;;;4465182;32;20227;-56
2022/05/27 05:53:48;;;;;;;17.17;9.02;;;;;;;;;;4464789;32;20354;-55
2022/05/27 05:56:13;;;;;;;13.07;9.13;;;;;;;;;;4465150;32;20228;-56
2022/05/27 05:58:39;;;;;;;11.38;8.23;;;;;;;;;;4465352;32;20593;-55
2022/05/27 06:01:05;;;;;;;12.70;8.85;;;;;;;;;;4465766;32;20680;-54
2022/05/27 06:03:30;;;;;;;13.73;7.68;;;;;;;;;;4465202;32;20260;-55
2022/05/27 06:05:56;;;;;;;12.40;8.50;;;;;;;;;;4450638;32;20247;-55
2022/05/27 06:08:21;;;;;;;11.35;8.38;;;;;;;;;;4449135;32;20283;-55
2022/05/27 06:10:48;;;;;;;28.77;11.80;;;;;;;;;;4448816;32;20803;-55
2022/05/27 06:13:14;;;;;;;16.08;9.30;;;;;;;;;;4447663;32;20673;-56
2022/05/27 06:15:40;;;;;;;24.70;10.00;;;;;;;;;;4447440;32;20209;-56
2022/05/27 06:18:07;;;;;;;16.25;9.07;;;;;;;;;;4448787;32;20229;-55
2022/05/27 06:20:33;;;;;;;10.02;8.70;;;;;;;;;;4447516;32;20263;-56
2022/05/27 06:23:02;;;;;;;16.92;9.27;;;;;;;;;;4449530;32;20345;-54
2022/05/27 06:25:27;;;;;;;13.45;8.57;;;;;;;;;;4448855;32;20271;-56
2022/05/27 06:34:23;;;;;;;20.88;9.52;;;;;;;;;;4459001;32;20259;-55
2022/05/27 06:36:06;;;;;;;12.20;9.18;;;;;;;;;;4465299;32;20686;-56
2022/05/27 06:38:31;;;;;;;17.35;8.95;;;;;;;;;;4464987;32;20291;-56
2022/05/27 06:40:57;;;;;;;18.55;10.20;;;;;;;;;;4464631;32;20226;-56
2022/05/27 06:43:22;;;;;;;15.77;9.55;;;;;;;;;;4464258;32;20553;-55
2022/05/27 06:45:48;;;;;;;13.55;8.30;;;;;;;;;;4465833;32;20234;-55
2022/05/27 06:48:14;;;;;;;14.75;8.90;;;;;;;;;;4465593;32;20314;-56
2022/05/27 06:50:39;;;;;;;12.98;8.25;;;;;;;;;;4465014;32;20200;-56
2022/05/27 06:53:04;;;;;;;17.73;9.68;;;;;;;;;;4454287;32;20673;-55
2022/05/27 06:55:30;;;;;;;18.50;10.15;;;;;;;;;;4448299;32;20205;-56
2022/05/27 06:57:56;;;;;;;14.13;9.32;;;;;;;;;;4449178;32;20360;-55
2022/05/27 07:00:22;;;;;;;15.02;8.65;;;;;;;;;;4449215;32;20257;-55
2022/05/27 07:02:47;;;;;;;13.85;8.02;;;;;;;;;;4464225;32;20619;-54
2022/05/27 07:05:13;;;;;;;11.68;7.95;;;;;;;;;;4464582;32;20188;-55
2022/05/27 07:07:39;;;;;;;16.37;8.25;;;;;;;;;;4462140;32;20299;-55
2022/05/27 07:10:05;;;;;;;11.60;7.78;;;;;;;;;;4448594;32;20308;-55
2022/05/27 07:12:30;;;;;;;17.40;8.80;;;;;;;;;;4448884;32;20220;-55
2022/05/27 07:14:55;;;;;;;12.25;7.53;;;;;;;;;;4449218;32;20755;-55
2022/05/27 07:17:21;;;;;;;14.43;7.65;;;;;;;;;;4449029;32;20574;-55
2022/05/27 07:19:46;;;;;;;10.02;6.90;;;;;;;;;;4449005;32;20741;-56
2022/05/27 07:22:12;;;;;;;11.20;7.32;;;;;;;;;;4448701;32;20228;-55
2022/05/27 07:24:38;;;;;;;10.82;6.62;;;;;;;;;;4448846;32;20390;-56
2022/05/27 07:27:04;;;;;;;10.73;7.47;;;;;;;;;;4453426;32;20260;-56
2022/05/27 07:29:30;;;;;;;12.27;7.12;;;;;;;;;;4465135;32;20286;-56
2022/05/27 07:31:55;;;;;;;15.95;7.45;;;;;;;;;;4464361;32;20343;-56
2022/05/27 07:34:21;;;;;;;10.07;7.50;;;;;;;;;;4464273;32;20282;-55
2022/05/27 07:36:46;;;;;;;13.07;7.62;;;;;;;;;;4464449;32;20232;-56
2022/05/27 07:39:12;;;;;;;14.60;7.03;;;;;;;;;;4464175;32;20392;-55
2022/05/27 07:41:37;;;;;;;12.85;5.82;;;;;;;;;;4463818;32;20220;-55
2022/05/27 07:44:04;;;;;;;9.73;6.65;;;;;;;;;;4464189;32;20279;-56
2022/05/27 07:46:31;;;;;;;14.40;6.03;;;;;;;;;;4464257;32;20397;-55
2022/05/27 07:48:57;;;;;;;12.05;6.87;;;;;;;;;;4463465;32;20200;-55
2022/05/27 07:51:23;;;;;;;12.60;7.07;;;;;;;;;;4462823;32;20228;-56
2022/05/27 07:53:48;;;;;;;12.60;6.75;;;;;;;;;;4457461;32;20663;-56
2022/05/27 07:56:14;;;;;;;11.40;7.05;;;;;;;;;;4463858;32;20307;-56
2022/05/27 07:58:39;;;;;;;14.63;6.03;;;;;;;;;;4448592;32;20302;-56
2022/05/27 08:01:06;;;;;;;15.23;5.85;;;;;;;;;;4448516;32;20226;-56
2022/05/27 08:03:32;;;;;;;10.25;5.97;;;;;;;;;;4448675;32;20553;-56
2022/05/27 08:05:59;;;;;;;8.90;4.80;;;;;;;;;;4450989;32;20219;-55
2022/05/27 08:08:24;;;;;;;10.07;5.40;;;;;;;;;;4450925;32;20300;-55
2022/05/27 08:10:50;;;;;;;19.62;5.60;;;;;;;;;;4450900;32;20510;-56
2022/05/27 08:13:15;;;;;;;9.50;4.90;;;;;;;;;;4450827;32;20330;-56
2022/05/27 08:15:42;;;;;;;6.80;4.55;;;;;;;;;;4451047;32;20230;-55
2022/05/27 08:18:08;;;;;;;12.50;4.78;;;;;;;;;;4451231;32;20447;-56
2022/05/27 08:20:37;;;;;;;12.35;3.80;;;;;;;;;;4450444;32;20255;-54
2022/05/27 08:23:03;;;;;;;8.93;3.50;;;;;;;;;;4450636;32;20673;-55
2022/05/27 08:25:29;;;;;;;11.00;4.12;;;;;;;;;;4449570;32;20332;-55
2022/05/27 08:27:55;;;;;;;12.50;3.45;;;;;;;;;;4460655;32;20259;-55
2022/05/27 08:30:28;;;;;;;3.78;3.08;;;;;;;;;;4466248;32;20548;-55
2022/05/27 08:32:54;;;;;;;6.90;3.70;;;;;;;;;;4465669;32;20216;-56
2022/05/27 08:38:07;;;;;;;6.53;4.12;;;;;;;;;;4465707;32;20237;-55
2022/05/27 08:40:51;;;;;;;10.75;4.65;;;;;;;;;;4465607;32;20212;-55
2022/05/27 08:43:35;;;;;;;12.52;4.70;;;;;;;;;;4465865;32;20267;-57
2022/05/27 08:46:15;;;;;;;9.60;6.53;;;;;;;;;;4465406;32;20259;-54
2022/05/27 08:48:44;;;;;;;18.42;4.60;;;;;;;;;;4465872;32;20228;-55
2022/05/27 08:51:24;;;;;;;8.20;4.03;;;;;;;;;;4465208;32;20271;-56
2022/05/27 08:54:43;;;;;;;5.60;4.47;;;;;;;;;;4456320;32;20276;-54
2022/05/27 09:00:04;;;;;;;6.70;4.07;;;;;;;;;;4449467;32;20692;-55
2022/05/27 09:02:49;;;;;;;6.68;3.50;;;;;;;;;;4449684;32;20291;-56
2022/05/27 09:05:17;;;;;;;10.13;3.70;;;;;;;;;;4448231;32;20251;-56
2022/05/27 09:07:47;;;;;;;7.78;3.80;;;;;;;;;;4452686;32;20328;-56
2022/05/27 09:10:21;;;;;;;6.53;3.15;;;;;;;;;;4464844;32;20232;-55
2022/05/27 09:13:16;;;;;;;7.68;3.67;;;;;;;;;;4464892;32;20395;-55
2022/05/27 09:16:10;;;;;;;10.52;3.92;;;;;;;;;;4464925;32;20228;-56
2022/05/27 09:18:54;;;;;;;12.32;4.15;;;;;;;;;;4465296;32;20654;-55
2022/05/27 09:21:32;;;;;;;9.45;3.53;;;;;;;;;;4465359;32;20217;-55
2022/05/27 09:24:38;;;;;;;13.93;3.60;;;;;;;;;;4465410;32;20235;-56
2022/05/27 09:27:08;;;;;;;10.57;3.87;;;;;;;;;;4464620;32;20720;-56
2022/05/27 09:29:55;;;;;;;7.28;3.45;;;;;;;;;;4464226;32;20279;-55
2022/05/27 09:32:31;;;;;;;18.27;5.87;;;;;;;;;;4464879;32;20373;-56
2022/05/27 09:35:02;;;;;;;10.30;3.40;;;;;;;;;;4464257;32;20196;-56
2022/05/27 09:37:37;;;;;;;5.82;3.20;;;;;;;;;;4465096;32;20743;-56
2022/05/27 09:40:13;;;;;;;7.45;3.62;;;;;;;;;;4465075;32;20698;-55
2022/05/27 09:43:02;;;;;;;8.65;3.92;;;;;;;;;;4465364;32;20377;-54
2022/05/27 09:45:29;;;;;;;8.57;3.60;;;;;;;;;;4456467;32;20254;-56
2022/05/27 09:48:00;;;;;;;15.25;3.83;;;;;;;;;;4465220;32;20296;-56
2022/05/27 09:50:41;;;;;;;7.25;3.53;;;;;;;;;;4463987;32;20200;-56
2022/05/27 09:53:11;;;;;;;11.88;3.85;;;;;;;;;;4454032;32;20223;-56
2022/05/27 09:55:54;;;;;;;10.98;3.78;;;;;;;;;;4447608;32;20267;-54
2022/05/27 09:58:28;;;;;;;9.65;3.28;;;;;;;;;;4449211;32;20351;-54
2022/05/27 10:00:54;;;;;;;11.68;2.83;;;;;;;;;;4447306;32;20213;-54
2022/05/27 10:03:24;;;;;;;16.90;4.40;;;;;;;;;;4447284;32;20254;-55
2022/05/27 10:06:01;;;;;;;8.90;2.85;;;;;;;;;;4447943;32;20221;-56
2022/05/27 10:08:34;;;;;;;9.10;3.58;;;;;;;;;;4448096;32;20213;-56
2022/05/27 10:11:11;;;;;;;17.20;3.60;;;;;;;;;;4447604;32;20557;-57
2022/05/27 10:13:40;;;;;;;6.00;3.65;;;;;;;;;;4458557;32;20608;-57
2022/05/27 10:16:11;;;;;;;4.75;2.67;;;;;;;;;;4453482;32;20232;-55
2022/05/27 10:18:40;;;;;;;17.23;3.37;;;;;;;;;;4463697;32;20193;-55
2022/05/27 10:21:19;;;;;;;7.50;3.37;;;;;;;;;;4452450;32;20539;-56
2022/05/27 10:23:54;;;;;;;14.07;3.22;;;;;;;;;;4447347;32;20232;-57
2022/05/27 10:26:29;;;;;;;6.78;3.03;;;;;;;;;;4447397;32;20732;-56
2022/05/27 10:29:06;;;;;;;10.52;3.53;;;;;;;;;;4462156;32;20254;-55
2022/05/27 10:31:32;;;;;;;5.03;2.80;;;;;;;;;;4464213;32;20302;-57
2022/05/27 10:34:00;;;;;;;10.50;3.37;;;;;;;;;;4464158;32;20228;-56
2022/05/27 10:36:50;;;;;;;14.40;4.50;;;;;;;;;;4462850;32;20247;-55
2022/05/27 10:39:36;;;;;;;9.25;4.00;;;;;;;;;;4464116;32;20670;-55
2022/05/27 10:42:05;;;;;;;9.43;3.35;;;;;;;;;;4464114;32;20269;-55
2022/05/27 10:44:48;;;;;;;8.30;4.18;;;;;;;;;;4463738;32;20568;-55
2022/05/27 10:47:40;;;;;;;8.65;3.08;;;;;;;;;;4449173;32;20573;-54
2022/05/27 10:50:22;;;;;;;8.60;3.25;;;;;;;;;;4448638;32;20381;-54
2022/05/27 10:53:02;;;;;;;8.45;3.47;;;;;;;;;;4447661;32;20248;-56
2022/05/27 10:56:01;;;;;;;7.57;4.05;;;;;;;;;;4448801;32;20185;-55
2022/05/27 11:04:45;;;;;;;14.75;3.80;;;;;;;;;;4448337;32;20289;-55
2022/05/27 11:07:29;;;;;;;4.97;3.25;;;;;;;;;;4447119;32;20811;-55
2022/05/27 11:10:13;;;;;;;13.85;5.10;;;;;;;;;;4448495;32;20217;-56
2022/05/27 11:16:13;;;;;;;18.83;4.07;;;;;;;;;;4415083;32;20269;-55
2022/05/27 11:19:21;;;;;;;14.40;3.62;;;;;;;;;;4448694;32;20650;-55
2022/05/27 11:22:11;;;;;;;12.27;4.03;;;;;;;;;;4448192;32;20250;-55
2022/05/27 11:25:19;;;;;;;15.35;4.20;;;;;;;;;;4448191;32;20201;-54
2022/05/27 11:28:14;;;;;;;13.02;4.30;;;;;;;;;;4457667;32;20260;-54
2022/05/27 11:30:55;;;;;;;14.13;4.22;;;;;;;;;;4464160;32;20199;-55
2022/05/27 11:33:46;;;;;;;7.65;3.62;;;;;;;;;;4464476;32;20188;-55
2022/05/27 11:36:41;;;;;;;13.68;3.50;;;;;;;;;;4464012;32;20339;-55
2022/05/27 11:39:28;;;;;;;17.85;4.68;;;;;;;;;;4465769;32;20577;-55
2022/05/27 11:42:14;;;;;;;8.77;4.20;;;;;;;;;;4463000;32;20279;-55
2022/05/27 11:45:01;;;;;;;9.43;3.28;;;;;;;;;;4451536;32;20224;-55
2022/05/27 11:47:50;;;;;;;6.95;3.62;;;;;;;;;;4451182;32;20233;-56
2022/05/27 11:50:43;;;;;;;11.68;3.80;;;;;;;;;;4450751;32;20708;-56
2022/05/27 11:53:42;;;;;;;7.53;3.20;;;;;;;;;;4451241;32;20212;-56
2022/05/27 11:56:21;;;;;;;6.60;3.20;;;;;;;;;;4451100;32;20280;-56
2022/05/27 11:59:08;;;;;;;9.07;3.95;;;;;;;;;;4449930;32;20579;-54
2022/05/27 12:01:38;;;;;;;18.45;5.00;;;;;;;;;;4449081;32;20636;-55
2022/05/27 12:04:26;;;;;;;17.85;4.93;;;;;;;;;;4450167;32;20208;-56
2022/05/27 12:07:19;;;;;;;16.60;4.78;;;;;;;;;;4450479;32;20322;-55
2022/05/27 12:09:52;;;;;;;13.95;5.60;;;;;;;;;;4450309;32;20205;-55
2022/05/27 12:12:24;;;;;;;9.52;4.62;;;;;;;;;;4450186;32;20209;-55
2022/05/27 12:14:59;;;;;;;9.25;3.80;;;;;;;;;;4450287;32;20289;-56
2022/05/27 12:17:43;;;;;;;11.80;4.57;;;;;;;;;;4450203;32;20291;-55
2022/05/27 12:20:11;;;;;;;14.87;5.10;;;;;;;;;;4449575;32;20200;-55
2022/05/27 12:22:37;;;;;;;11.82;3.30;;;;;;;;;;4449437;32;20364;-55
2022/05/27 12:25:05;;;;;;;18.25;4.55;;;;;;;;;;4449652;32;20296;-54
2022/05/27 12:27:32;;;;;;;11.93;4.45;;;;;;;;;;4457637;32;20292;-55
2022/05/27 12:29:58;;;;;;;11.48;4.30;;;;;;;;;;4465427;32;20212;-54
2022/05/27 12:32:26;;;;;;;12.25;4.30;;;;;;;;;;4450624;32;20252;-53
2022/05/27 12:34:52;;;;;;;8.57;3.90;;;;;;;;;;4450165;32;20731;-54
2022/05/27 12:37:20;;;;;;;13.57;5.07;;;;;;;;;;4450003;32;20246;-54
2022/05/27 12:39:48;;;;;;;19.05;5.28;;;;;;;;;;4462745;32;20272;-54
2022/05/27 12:42:40;;;;;;;20.35;5.47;;;;;;;;;;4464743;32;20216;-54
2022/05/27 12:45:18;;;;;;;18.73;5.82;;;;;;;;;;4465341;32;20238;-54
2022/05/27 12:47:48;;;;;;;13.23;5.10;;;;;;;;;;4465207;32;20648;-54
2022/05/27 12:50:20;;;;;;;20.00;4.45;;;;;;;;;;4463887;32;20208;-55
2022/05/27 12:52:49;;;;;;;15.80;5.30;;;;;;;;;;4464949;32;20276;-56
2022/05/27 13:01:41;;;;;;;12.63;4.72;;;;;;;;;;4449545;32;20264;-55
2022/05/27 13:04:07;;;;;;;12.60;4.93;;;;;;;;;;4449638;32;20295;-55
2022/05/27 13:06:35;;;;;;;13.80;4.03;;;;;;;;;;4449308;32;20224;-55
2022/05/27 13:09:09;;;;;;;15.43;4.70;;;;;;;;;;4460434;32;20226;-56
2022/05/27 13:11:34;;;;;;;30.50;7.80;;;;;;;;;;4464337;32;20247;-56
2022/05/27 13:14:08;;;;;;;35.13;7.65;;;;;;;;;;4463202;32;20295;-56
2022/05/27 13:16:36;;;;;;;22.27;6.25;;;;;;;;;;4464120;32;20655;-57
2022/05/27 13:19:06;;;;;;;26.40;7.50;;;;;;;;;;4451709;32;20243;-58
2022/05/27 13:21:53;;;;;;;20.40;6.10;;;;;;;;;;4464087;32;20343;-59
2022/05/27 13:24:18;;;;;;;32.40;6.93;;;;;;;;;;4465020;32;20260;-57
2022/05/27 13:26:47;;;;;;;27.02;4.93;;;;;;;;;;4464080;32;20322;-57
2022/05/27 13:29:39;;;;;;;12.10;4.95;;;;;;;;;;4464373;32;20333;-58
2022/05/27 13:32:10;;;;;;;8.68;4.97;;;;;;;;;;4463514;32;20297;-58
2022/05/27 13:34:56;;;;;;;11.93;5.85;;;;;;;;;;4459327;32;20251;-59
2022/05/27 13:37:34;;;;;;;11.50;5.35;;;;;;;;;;4449164;32;20752;-58
2022/05/27 13:40:04;;;;;;;18.75;6.07;;;;;;;;;;4448692;32;20203;-59
2022/05/27 13:42:33;;;;;;;22.50;5.75;;;;;;;;;;4448377;32;20326;-59
2022/05/27 13:45:14;;;;;;;21.33;6.07;;;;;;;;;;4446631;32;20518;-58
2022/05/27 13:47:44;;;;;;;20.02;6.97;;;;;;;;;;4447897;32;20314;-58
2022/05/27 13:50:29;;;;;;;14.00;6.70;;;;;;;;;;4448144;32;20590;-58
2022/05/27 13:52:55;;;;;;;22.80;6.45;;;;;;;;;;4446570;32;20701;-59
2022/05/27 13:55:30;;;;;;;15.20;5.35;;;;;;;;;;4446146;32;20226;-57
2022/05/27 13:58:01;;;;;;;12.25;6.43;;;;;;;;;;4446369;32;20624;-58
2022/05/27 14:00:33;;;;;;;14.90;7.85;;;;;;;;;;4446377;32;20871;-57
2022/05/27 14:02:58;;;;;;;23.25;7.70;;;;;;;;;;4446539;32;20511;-58
2022/05/27 14:05:28;;;;;;;14.30;6.10;;;;;;;;;;4446214;32;20246;-57
2022/05/27 14:07:57;;;;;;;16.65;5.97;;;;;;;;;;4450757;32;20227;-58
2022/05/27 14:10:24;;;;;;;9.70;5.00;;;;;;;;;;4463602;32;20232;-57
2022/05/27 14:12:51;;;;;;;11.93;5.30;;;;;;;;;;4464212;32;20262;-58
2022/05/27 14:15:25;;;;;;;21.73;6.75;;;;;;;;;;4464123;32;20204;-58
2022/05/27 14:17:52;;;;;;;12.20;6.22;;;;;;;;;;4459393;32;20219;-58
2022/05/27 14:20:29;;;;;;;19.08;6.35;;;;;;;;;;4456314;32;20299;-58
2022/05/27 14:23:03;;;;;;;17.02;6.85;;;;;;;;;;4464203;32;20236;-58
2022/05/27 14:25:33;;;;;;;15.05;5.85;;;;;;;;;;4464916;32;20448;-57
2022/05/27 14:28:02;;;;;;;20.95;6.72;;;;;;;;;;4463796;32;20624;-58
2022/05/27 14:30:34;;;;;;;26.00;7.62;;;;;;;;;;4461699;32;20717;-58
2022/05/27 14:32:59;;;;;;;23.87;7.70;;;;;;;;;;4449855;32;20311;-58
2022/05/27 14:35:29;;;;;;;16.15;5.50;;;;;;;;;;4449398;32;20251;-58
2022/05/27 14:37:58;;;;;;;14.35;6.55;;;;;;;;;;4448803;32;20672;-58
2022/05/27 14:40:35;;;;;;;13.98;5.75;;;;;;;;;;4449236;32;20240;-57
2022/05/27 14:43:01;;;;;;;14.32;5.50;;;;;;;;;;4449269;32;20242;-57
2022/05/27 14:45:47;;;;;;;23.77;6.57;;;;;;;;;;4447989;32;20280;-57
2022/05/27 14:48:41;;;;;;;21.87;6.65;;;;;;;;;;4448894;32;20239;-58
2022/05/27 14:51:35;;;;;;;17.95;6.10;;;;;;;;;;4448635;32;20204;-57
2022/05/27 14:54:34;;;;;;;13.95;6.65;;;;;;;;;;4448442;32;20795;-57
2022/05/27 14:57:13;;;;;;;19.50;7.25;;;;;;;;;;4428222;32;20675;-58
2022/05/27 14:59:47;;;;;;;15.13;7.05;;;;;;;;;;4448936;32;20301;-58
2022/05/27 15:02:22;;;;;;;10.18;6.32;;;;;;;;;;4448705;32;20784;-58
2022/05/27 15:05:06;;;;;;;15.63;6.53;;;;;;;;;;4447678;32;20238;-57
2022/05/27 15:07:47;;;;;;;14.73;6.90;;;;;;;;;;4450402;32;20547;-57
2022/05/27 15:10:22;;;;;;;19.73;6.47;;;;;;;;;;4462528;32;20251;-57
2022/05/27 15:12:48;;;;;;;18.23;6.90;;;;;;;;;;4463955;32;20244;-57
2022/05/27 15:15:27;;;;;;;19.00;7.12;;;;;;;;;;4467131;32;20863;-57
2022/05/27 15:18:04;;;;;;;11.25;6.53;;;;;;;;;;4461713;32;20790;-57
2022/05/27 15:20:29;;;;;;;21.30;7.87;;;;;;;;;;4449542;32;20379;-59
2022/05/27 15:22:57;;;;;;;16.95;7.35;;;;;;;;;;4450746;32;20334;-57
2022/05/27 15:25:30;;;;;;;21.12;7.43;;;;;;;;;;4451292;32;20209;-57
2022/05/27 15:33:36;;;;;;;19.65;7.45;;;;;;;;;;4451180;32;20188;-57
2022/05/27 15:36:02;;;;;;;35.53;8.00;;;;;;;;;;4450366;32;20228;-57
2022/05/27 15:38:29;;;;;;;23.87;7.40;;;;;;;;;;4450901;32;20386;-58
2022/05/27 15:40:58;;;;;;;9.32;6.57;;;;;;;;;;4450671;32;20620;-57
2022/05/27 15:43:29;;;;;;;18.98;7.43;;;;;;;;;;4450959;32;20659;-57